createdAt,value
2023-04-18T00:02:41.653Z,8.43
2023-04-18T00:06:45.276Z,8.40
2023-04-18T00:10:48.372Z,8.40
2023-04-18T00:14:52.421Z,8.39
2023-04-18T00:18:57.517Z,8.40
2023-04-18T00:23:04.081Z,8.37
2023-04-18T00:27:07.278Z,8.39
2023-04-18T00:31:10.397Z,8.41
2023-04-18T00:35:19.351Z,8.37
2023-04-18T00:39:23.714Z,8.36
2023-04-18T00:43:28.393Z,8.35
2023-04-18T00:47:37.079Z,8.33
2023-04-18T00:51:42.083Z,8.33
2023-04-18T00:55:45.104Z,8.32
2023-04-18T00:59:50.966Z,8.35
2023-04-18T01:03:54.233Z,8.36
2023-04-18T01:08:01.437Z,8.34
2023-04-18T01:12:04.762Z,8.36
2023-04-18T01:16:08.265Z,8.33
2023-04-18T01:20:12.655Z,8.34
2023-04-18T01:24:24.737Z,8.35
2023-04-18T01:28:28.007Z,8.34
2023-04-18T01:32:31.253Z,8.32
2023-04-18T01:36:34.877Z,8.34
2023-04-18T01:40:40.599Z,8.32
2023-04-18T01:44:44.005Z,8.34
2023-04-18T01:48:46.875Z,8.34
2023-04-18T01:52:51.548Z,8.33
2023-04-18T01:56:56.169Z,8.34
2023-04-18T02:00:59.359Z,8.32
2023-04-18T02:05:02.802Z,8.33
2023-04-18T02:09:05.795Z,8.33
2023-04-18T02:13:10.166Z,8.32
2023-04-18T02:17:13.524Z,8.34
2023-04-18T02:21:16.657Z,8.37
2023-04-18T02:25:19.773Z,8.33
2023-04-18T02:29:24.343Z,8.31
2023-04-18T02:33:27.394Z,8.29
2023-04-18T02:37:30.781Z,8.29
2023-04-18T02:41:35.260Z,8.28
2023-04-18T02:45:39.864Z,8.26
2023-04-18T02:49:45.987Z,8.26
2023-04-18T02:53:55.137Z,8.27
2023-04-18T02:57:58.789Z,8.27
2023-04-18T03:02:04.888Z,8.25
2023-04-18T03:06:08.156Z,8.26
2023-04-18T03:10:12.132Z,8.27
2023-04-18T03:14:15.482Z,8.27
2023-04-18T03:18:20.389Z,8.27
2023-04-18T03:22:23.460Z,8.28
2023-04-18T03:26:27.069Z,8.29
2023-04-18T03:30:30.757Z,8.31
2023-04-18T03:34:35.180Z,8.32
2023-04-18T03:38:41.147Z,8.34
2023-04-18T03:42:46.677Z,8.40
2023-04-18T03:46:49.708Z,8.40
2023-04-18T03:50:54.289Z,8.42
2023-04-18T03:54:57.206Z,8.43
2023-04-18T03:59:00.362Z,8.45
2023-04-18T04:03:03.165Z,8.49
2023-04-18T04:07:07.936Z,8.53
2023-04-18T04:11:11.062Z,8.54
2023-04-18T04:15:14.663Z,8.54
2023-04-18T04:19:17.377Z,8.56
2023-04-18T04:23:22.911Z,8.59
2023-04-18T04:27:27.230Z,8.63
2023-04-18T04:31:36.952Z,8.66
2023-04-18T04:35:40.279Z,8.69
2023-04-18T04:39:44.845Z,8.72
2023-04-18T04:43:48.063Z,8.75
2023-04-18T04:47:54.086Z,8.78
2023-04-18T04:51:57.242Z,8.82
2023-04-18T04:56:01.871Z,8.84
2023-04-18T05:00:07.940Z,8.88
2023-04-18T05:04:11.101Z,8.88
2023-04-18T05:08:16.613Z,8.88
2023-04-18T05:12:23.976Z,8.93
2023-04-18T05:16:30.036Z,8.96
2023-04-18T05:20:33.136Z,9.01
2023-04-18T05:24:35.857Z,9.06
2023-04-18T05:28:41.656Z,9.12
2023-04-18T05:32:45.044Z,9.25
2023-04-18T05:36:48.835Z,9.38
2023-04-18T05:40:52.408Z,9.53
2023-04-18T05:44:57.382Z,9.63
2023-04-18T05:49:00.235Z,9.74
2023-04-18T05:53:03.315Z,9.83
2023-04-18T05:57:08.005Z,10.00
2023-04-18T06:01:13.114Z,10.15
2023-04-18T06:05:16.705Z,10.30
2023-04-18T06:09:19.772Z,10.44
2023-04-18T06:13:22.867Z,10.67
2023-04-18T06:17:26.977Z,11.12
2023-04-18T06:21:32.831Z,11.57
2023-04-18T06:25:37.836Z,11.70
2023-04-18T06:29:40.472Z,11.59
2023-04-18T06:33:44.832Z,11.42
2023-04-18T06:37:48.513Z,11.23
2023-04-18T06:41:54.241Z,11.09
2023-04-18T06:45:57.881Z,11.07
2023-04-18T06:50:02.396Z,11.18
2023-04-18T06:54:12.568Z,11.18
2023-04-18T06:58:17.097Z,11.14
2023-04-18T07:02:20.164Z,11.34
2023-04-18T07:06:24.563Z,11.45
2023-04-18T07:10:27.531Z,11.57
2023-04-18T07:14:32.262Z,11.45
2023-04-18T07:18:38.566Z,11.56
2023-04-18T07:22:43.691Z,11.56
2023-04-18T07:26:46.578Z,11.55
2023-04-18T07:30:50.532Z,11.70
2023-04-18T07:34:53.997Z,11.89
2023-04-18T07:38:58.966Z,12.08
2023-04-18T07:43:01.897Z,12.38
2023-04-18T07:47:10.301Z,12.63
2023-04-18T07:51:13.680Z,12.76
2023-04-18T07:55:19.773Z,12.82
2023-04-18T07:59:22.680Z,12.89
2023-04-18T08:03:25.422Z,12.89
2023-04-18T08:07:28.766Z,12.71
2023-04-18T08:11:34.984Z,12.61
2023-04-18T08:15:38.002Z,12.51
2023-04-18T08:19:40.526Z,12.45
2023-04-18T08:23:43.730Z,12.50
2023-04-18T08:27:48.042Z,12.58
2023-04-18T08:31:51.347Z,12.71
2023-04-18T08:35:54.479Z,12.89
2023-04-18T08:39:57.715Z,13.15
2023-04-18T08:44:02.489Z,13.43
2023-04-18T08:48:08.318Z,13.48
2023-04-18T08:52:14.512Z,13.56
2023-04-18T08:56:17.689Z,13.76
2023-04-18T09:00:23.939Z,13.88
2023-04-18T09:04:45.588Z,14.02
2023-04-18T09:09:00.504Z,14.84
2023-04-18T09:13:04.526Z,15.01
2023-04-18T09:17:08.926Z,14.94
2023-04-18T09:21:20.107Z,15.12
2023-04-18T09:25:27.729Z,15.27
2023-04-18T09:29:46.999Z,15.75
2023-04-18T09:33:57.093Z,16.11
2023-04-18T09:38:00.373Z,16.12
2023-04-18T09:42:03.911Z,16.39
2023-04-18T09:46:09.951Z,16.45
2023-04-18T09:50:18.742Z,16.41
2023-04-18T09:54:24.238Z,16.23
2023-04-18T09:58:34.335Z,15.99
2023-04-18T10:02:51.684Z,15.90
2023-04-18T10:06:58.905Z,16.10
2023-04-18T10:11:04.884Z,16.16
2023-04-18T10:15:10.620Z,16.54
2023-04-18T10:19:27.420Z,16.77
2023-04-18T10:23:39.313Z,17.24
2023-04-18T10:27:57.630Z,17.77
2023-04-18T10:32:07.384Z,17.84
2023-04-18T10:36:22.543Z,17.65
2023-04-18T10:40:35.667Z,18.00
2023-04-18T10:44:38.981Z,18.15
2023-04-18T10:48:41.967Z,18.57
2023-04-18T10:52:45.019Z,18.22
2023-04-18T10:56:57.092Z,17.50
2023-04-18T11:01:01.099Z,17.38
2023-04-18T11:05:08.137Z,17.92
2023-04-18T11:09:11.847Z,18.17
2023-04-18T11:13:16.422Z,18.14
2023-04-18T11:17:24.050Z,18.56
2023-04-18T11:21:30.723Z,19.07
2023-04-18T11:25:36.680Z,19.43
2023-04-18T11:29:41.333Z,18.92
2023-04-18T11:33:46.590Z,18.43
2023-04-18T11:37:51.632Z,17.55
2023-04-18T11:41:57.328Z,17.09
2023-04-18T11:46:02.145Z,16.73
2023-04-18T11:50:07.393Z,16.37
2023-04-18T11:54:37.289Z,16.35
2023-04-18T11:58:41.099Z,16.49
2023-04-18T12:02:48.277Z,16.74
2023-04-18T12:06:52.847Z,16.70
2023-04-18T12:10:56.763Z,16.55
2023-04-18T12:15:01.798Z,16.42
2023-04-18T12:19:11.648Z,16.27
2023-04-18T12:23:35.785Z,16.29
2023-04-18T12:28:05.212Z,16.22
2023-04-18T12:32:08.006Z,15.93
2023-04-18T12:36:12.602Z,15.67
2023-04-18T12:40:16.276Z,15.66
2023-04-18T12:44:19.240Z,15.81
2023-04-18T12:48:21.544Z,15.93
2023-04-18T12:52:27.092Z,15.76
2023-04-18T12:56:29.945Z,15.65
2023-04-18T13:00:33.757Z,15.74
2023-04-18T13:04:36.964Z,16.01
2023-04-18T13:08:42.816Z,16.21
2023-04-18T13:12:47.959Z,16.11
2023-04-18T13:16:51.501Z,15.92
2023-04-18T13:20:54.638Z,15.76
2023-04-18T13:24:59.162Z,15.82
2023-04-18T13:29:02.094Z,16.05
2023-04-18T13:33:06.829Z,16.41
2023-04-18T13:37:10.012Z,16.87
2023-04-18T13:41:14.248Z,17.24
2023-04-18T13:45:20.874Z,17.41
2023-04-18T13:49:23.874Z,17.60
2023-04-18T13:53:27.928Z,17.63
2023-04-18T13:57:37.549Z,17.53
2023-04-18T14:01:40.425Z,17.52
2023-04-18T14:05:43.581Z,17.41
2023-04-18T14:09:53.747Z,17.25
2023-04-18T14:13:58.345Z,17.09
2023-04-18T14:18:07.130Z,16.97
2023-04-18T14:22:10.202Z,16.90
2023-04-18T14:26:13.321Z,16.83
2023-04-18T14:30:18.387Z,16.76
2023-04-18T14:34:21.391Z,16.72
2023-04-18T14:38:23.991Z,16.64
2023-04-18T14:42:30.448Z,16.56
2023-04-18T14:46:35.027Z,16.48
2023-04-18T14:50:41.053Z,16.45
2023-04-18T14:54:45.116Z,16.48
2023-04-18T14:58:48.279Z,16.43
2023-04-18T15:02:52.755Z,16.30
2023-04-18T15:06:56.452Z,16.20
2023-04-18T15:10:59.388Z,16.07
2023-04-18T15:15:02.215Z,15.96
2023-04-18T15:19:10.102Z,15.85
2023-04-18T15:23:15.640Z,15.81
2023-04-18T15:27:18.724Z,15.74
2023-04-18T15:31:23.794Z,15.66
2023-04-18T15:35:28.186Z,15.64
2023-04-18T15:39:30.998Z,15.55
2023-04-18T15:43:33.986Z,15.45
2023-04-18T15:47:37.399Z,15.40
2023-04-18T15:51:41.774Z,15.31
2023-04-18T15:55:46.845Z,15.22
2023-04-18T15:59:51.033Z,15.09
2023-04-18T16:03:53.804Z,15.06
2023-04-18T16:07:59.653Z,14.95
2023-04-18T16:12:04.646Z,14.84
2023-04-18T16:16:08.024Z,14.75
2023-04-18T16:20:11.455Z,14.72
2023-04-18T16:24:16.673Z,14.54
2023-04-18T16:28:19.612Z,14.50
2023-04-18T16:32:23.109Z,14.43
2023-04-18T16:36:26.207Z,14.41
2023-04-18T16:40:31.672Z,14.33
2023-04-18T16:44:34.795Z,14.23
2023-04-18T16:48:40.979Z,14.11
2023-04-18T16:52:43.850Z,14.01
2023-04-18T16:56:48.514Z,13.91
2023-04-18T17:00:52.749Z,13.81
2023-04-18T17:04:56.657Z,13.70
2023-04-18T17:09:00.197Z,13.63
2023-04-18T17:13:05.285Z,13.56
2023-04-18T17:17:08.530Z,13.45
2023-04-18T17:21:12.720Z,13.34
2023-04-18T17:25:17.735Z,13.25
2023-04-18T17:29:24.259Z,13.15
2023-04-18T17:33:30.035Z,13.07
2023-04-18T17:37:33.573Z,13.01
2023-04-18T17:41:39.110Z,12.91
2023-04-18T17:45:44.336Z,12.80
2023-04-18T17:49:47.080Z,12.68
2023-04-18T17:53:50.303Z,12.55
2023-04-18T17:57:53.664Z,12.41
2023-04-18T18:01:58.883Z,12.25
2023-04-18T18:06:04.445Z,12.11
2023-04-18T18:10:08.887Z,12.01
2023-04-18T18:14:11.684Z,11.93
2023-04-18T18:18:16.304Z,11.84
2023-04-18T18:22:21.419Z,11.76
2023-04-18T18:26:26.652Z,11.71
2023-04-18T18:30:30.250Z,11.65
2023-04-18T18:34:34.365Z,11.65
2023-04-18T18:38:38.070Z,11.61
2023-04-18T18:42:45.528Z,11.56
2023-04-18T18:46:48.883Z,11.51
2023-04-18T18:50:53.491Z,11.43
2023-04-18T18:54:57.209Z,11.41
2023-04-18T18:59:02.044Z,11.40
2023-04-18T19:03:05.837Z,11.42
2023-04-18T19:07:10.140Z,11.45
2023-04-18T19:11:13.065Z,11.58
2023-04-18T19:15:16.528Z,11.66
2023-04-18T19:19:19.489Z,11.66
2023-04-18T19:23:25.534Z,11.66
2023-04-18T19:27:31.396Z,11.65
2023-04-18T19:31:34.381Z,11.68
2023-04-18T19:35:42.471Z,11.69
2023-04-18T19:39:49.325Z,11.68
2023-04-18T19:43:52.344Z,11.64
2023-04-18T19:47:55.700Z,11.59
2023-04-18T19:52:01.479Z,11.56
2023-04-18T19:56:06.220Z,11.62
2023-04-18T20:00:10.829Z,11.61
2023-04-18T20:04:13.770Z,11.61
2023-04-18T20:08:16.992Z,11.62
2023-04-18T20:12:21.804Z,11.66
2023-04-18T20:16:24.904Z,11.72
2023-04-18T20:20:29.042Z,11.72
2023-04-18T20:24:32.663Z,11.70
2023-04-18T20:28:38.211Z,11.64
2023-04-18T20:32:41.680Z,11.64
2023-04-18T20:36:46.857Z,11.60
2023-04-18T20:40:53.015Z,11.60
2023-04-18T20:44:59.174Z,11.64
2023-04-18T20:49:02.295Z,11.64
2023-04-18T20:53:07.520Z,11.56
2023-04-18T20:57:13.991Z,11.54
2023-04-18T21:01:18.788Z,11.51
2023-04-18T21:05:22.300Z,11.51
2023-04-18T21:09:25.336Z,11.50
2023-04-18T21:13:27.963Z,11.47
2023-04-18T21:17:32.460Z,11.41
2023-04-18T21:21:35.728Z,11.30
2023-04-18T21:25:40.770Z,11.20
2023-04-18T21:29:43.783Z,11.15
2023-04-18T21:33:48.126Z,11.10
2023-04-18T21:37:50.960Z,11.04
2023-04-18T21:41:54.599Z,10.95
2023-04-18T21:45:58.282Z,10.93
2023-04-18T21:50:03.132Z,10.96
2023-04-18T21:54:09.414Z,10.87
2023-04-18T21:58:13.572Z,10.84
2023-04-18T22:02:16.758Z,10.75
2023-04-18T22:06:23.348Z,10.71
2023-04-18T22:10:26.552Z,10.65
2023-04-18T22:14:33.834Z,10.58
2023-04-18T22:18:37.850Z,10.54
2023-04-18T22:22:42.781Z,10.54
2023-04-18T22:26:47.706Z,10.53
2023-04-18T22:30:50.834Z,10.49
2023-04-18T22:34:53.891Z,10.45
2023-04-18T22:39:00.974Z,10.40
2023-04-18T22:43:05.578Z,10.36
2023-04-18T22:47:08.676Z,10.30
2023-04-18T22:51:13.169Z,10.24
2023-04-18T22:55:17.616Z,10.17
2023-04-18T22:59:20.579Z,10.17
2023-04-18T23:03:23.586Z,10.12
2023-04-18T23:07:26.811Z,10.09
2023-04-18T23:11:33.725Z,10.07
2023-04-18T23:15:39.095Z,10.07
2023-04-18T23:19:42.755Z,10.02
2023-04-18T23:23:47.434Z,10.02
2023-04-18T23:27:51.894Z,9.97
2023-04-18T23:31:54.772Z,9.95
2023-04-18T23:35:57.806Z,9.93
2023-04-18T23:40:01.359Z,9.88
2023-04-18T23:44:06.285Z,9.79
2023-04-18T23:48:09.152Z,9.76
2023-04-18T23:52:11.768Z,9.67
2023-04-18T23:56:14.788Z,9.64
